createdAt,value
2023-01-08T00:02:13.999Z,93908.88
2023-01-08T00:04:40.798Z,93892.78
2023-01-08T00:07:07.512Z,93900.28
2023-01-08T00:09:34.229Z,93894.25
2023-01-08T00:12:00.965Z,93887.19
2023-01-08T00:14:27.755Z,93873.19
2023-01-08T00:16:54.608Z,93844.47
2023-01-08T00:19:21.322Z,93889.13
2023-01-08T00:21:48.151Z,93872.22
2023-01-08T00:24:15.062Z,93881.78
2023-01-08T00:26:41.765Z,93877.31
2023-01-08T00:29:08.623Z,93875.25
2023-01-08T00:31:35.370Z,93866.47
2023-01-08T00:34:02.076Z,93874.09
2023-01-08T00:36:28.804Z,93870.41
2023-01-08T00:38:55.545Z,93869.97
2023-01-08T00:41:22.421Z,93869.00
2023-01-08T00:43:49.146Z,93872.84
2023-01-08T00:46:15.924Z,93865.66
2023-01-08T00:48:42.623Z,93863.75
2023-01-08T00:51:09.587Z,93848.47
2023-01-08T00:53:38.177Z,93856.94
2023-01-08T00:56:09.961Z,93849.47
2023-01-08T00:58:37.059Z,93855.00
2023-01-08T01:01:10.521Z,93845.94
2023-01-08T01:03:37.375Z,93850.88
2023-01-08T01:06:05.506Z,93848.63
2023-01-08T01:08:32.261Z,93854.72
2023-01-08T01:10:58.998Z,93865.81
2023-01-08T01:13:26.002Z,93868.06
2023-01-08T01:15:59.877Z,93872.31
2023-01-08T01:18:26.609Z,93864.19
2023-01-08T01:20:53.548Z,93867.22
2023-01-08T01:23:20.343Z,93866.94
2023-01-08T01:25:46.985Z,93859.44
2023-01-08T01:28:13.599Z,93851.75
2023-01-08T01:30:40.391Z,93860.66
2023-01-08T01:33:07.029Z,93863.47
2023-01-08T01:35:33.811Z,93853.00
2023-01-08T01:38:00.456Z,93859.22
2023-01-08T01:40:27.168Z,93852.22
2023-01-08T01:42:53.946Z,93849.50
2023-01-08T01:45:27.676Z,93856.53
2023-01-08T01:47:58.693Z,93838.06
2023-01-08T01:50:44.671Z,93846.94
2023-01-08T01:53:16.284Z,93843.63
2023-01-08T01:55:44.028Z,93832.16
2023-01-08T01:58:16.736Z,93841.91
2023-01-08T02:00:44.362Z,93834.56
2023-01-08T02:03:12.042Z,93836.19
2023-01-08T02:05:50.464Z,93832.97
2023-01-08T02:08:32.030Z,93830.09
2023-01-08T02:11:17.172Z,93828.81
2023-01-08T02:13:49.421Z,93815.53
2023-01-08T02:16:35.529Z,93811.25
2023-01-08T02:19:10.312Z,93814.44
2023-01-08T02:21:52.906Z,93797.25
2023-01-08T02:24:51.994Z,93808.53
2023-01-08T02:27:19.759Z,93806.31
2023-01-08T02:29:47.412Z,93804.91
2023-01-08T02:32:14.077Z,93797.56
2023-01-08T02:34:40.673Z,93790.72
2023-01-08T02:37:09.133Z,93791.50
2023-01-08T02:39:53.941Z,93797.75
2023-01-08T02:42:23.302Z,93779.63
2023-01-08T02:45:08.459Z,93783.31
2023-01-08T02:48:17.051Z,93767.94
2023-01-08T02:50:55.289Z,93772.09
2023-01-08T02:53:29.138Z,93771.34
2023-01-08T02:55:59.272Z,93762.56
2023-01-08T02:58:28.022Z,93762.84
2023-01-08T03:00:54.938Z,93763.81
2023-01-08T03:03:29.436Z,93746.31
2023-01-08T03:06:03.655Z,93749.84
2023-01-08T03:08:33.598Z,93747.44
2023-01-08T03:11:18.048Z,93754.88
2023-01-08T03:13:50.804Z,93742.78
2023-01-08T03:16:46.620Z,93735.94
2023-01-08T03:19:22.616Z,93731.34
2023-01-08T03:21:51.182Z,93735.19
2023-01-08T03:24:24.436Z,93725.94
2023-01-08T03:26:52.552Z,93721.16
2023-01-08T03:29:20.771Z,93728.50
2023-01-08T03:31:48.550Z,93721.81
2023-01-08T03:34:16.092Z,93725.63
2023-01-08T03:36:46.898Z,93723.28
2023-01-08T03:39:19.516Z,93703.84
2023-01-08T03:41:47.211Z,93713.53
2023-01-08T03:44:14.019Z,93706.38
2023-01-08T03:46:44.623Z,93693.47
2023-01-08T03:49:12.305Z,93690.28
2023-01-08T03:51:41.095Z,93695.50
2023-01-08T03:54:09.937Z,93699.81
2023-01-08T03:56:36.596Z,93693.13
2023-01-08T03:59:03.239Z,93687.09
2023-01-08T04:01:29.978Z,93691.88
2023-01-08T04:03:56.646Z,93686.16
2023-01-08T04:06:23.281Z,93678.50
2023-01-08T04:08:49.947Z,93675.47
2023-01-08T04:11:16.842Z,93677.53
2023-01-08T04:13:43.801Z,93673.72
2023-01-08T04:16:10.529Z,93667.38
2023-01-08T04:18:37.236Z,93660.66
2023-01-08T04:21:04.107Z,93658.78
2023-01-08T04:23:30.800Z,93664.50
2023-01-08T04:25:57.443Z,93665.13
2023-01-08T04:28:24.941Z,93656.19
2023-01-08T04:30:51.859Z,93650.81
2023-01-08T04:33:18.565Z,93646.31
2023-01-08T04:35:45.270Z,93645.72
2023-01-08T04:38:11.992Z,93637.13
2023-01-08T04:40:38.721Z,93637.59
2023-01-08T04:43:05.411Z,93633.78
2023-01-08T04:45:32.124Z,93629.13
2023-01-08T04:47:59.481Z,93622.78
2023-01-08T04:50:26.912Z,93623.56
2023-01-08T04:52:53.825Z,93618.94
2023-01-08T04:55:20.518Z,93611.63
2023-01-08T04:57:48.059Z,93600.34
2023-01-08T05:00:15.323Z,93606.22
2023-01-08T05:02:42.268Z,93591.28
2023-01-08T05:05:09.233Z,93600.19
2023-01-08T05:07:35.980Z,93585.56
2023-01-08T05:10:02.739Z,93582.38
2023-01-08T05:12:29.417Z,93580.78
2023-01-08T05:14:56.244Z,93573.44
2023-01-08T05:17:22.883Z,93576.94
2023-01-08T05:19:49.509Z,93566.16
2023-01-08T05:22:16.115Z,93563.28
2023-01-08T05:24:42.715Z,93552.31
2023-01-08T05:27:09.300Z,93554.66
2023-01-08T05:29:35.921Z,93554.97
2023-01-08T05:32:02.528Z,93548.47
2023-01-08T05:34:29.112Z,93542.41
2023-01-08T05:36:55.795Z,93544.31
2023-01-08T05:39:22.443Z,93543.53
2023-01-08T05:41:48.979Z,93537.16
2023-01-08T05:44:15.628Z,93527.47
2023-01-08T05:46:42.276Z,93538.75
2023-01-08T05:49:09.077Z,93544.81
2023-01-08T05:51:35.698Z,93539.09
2023-01-08T05:54:02.309Z,93535.59
2023-01-08T05:56:28.966Z,93538.78
2023-01-08T05:58:56.001Z,93535.75
2023-01-08T06:01:22.750Z,93537.19
2023-01-08T06:03:49.538Z,93536.88
2023-01-08T06:06:16.868Z,93536.56
2023-01-08T06:08:43.543Z,93531.31
2023-01-08T06:11:12.073Z,93541.31
2023-01-08T06:13:42.006Z,93526.53
2023-01-08T06:16:08.707Z,93528.28
2023-01-08T06:18:35.707Z,93523.78
2023-01-08T06:21:04.162Z,93522.84
2023-01-08T06:23:31.669Z,93520.78
2023-01-08T06:26:00.054Z,93517.94
2023-01-08T06:28:27.138Z,93514.59
2023-01-08T06:30:53.775Z,93513.31
2023-01-08T06:33:21.474Z,93513.63
2023-01-08T06:35:48.447Z,93518.88
2023-01-08T06:38:15.375Z,93516.97
2023-01-08T06:40:41.972Z,93522.25
2023-01-08T06:43:08.609Z,93523.19
2023-01-08T06:45:35.430Z,93514.78
2023-01-08T06:48:03.410Z,93508.72
2023-01-08T06:50:30.674Z,93509.81
2023-01-08T06:52:57.579Z,93515.25
2023-01-08T06:55:29.142Z,93510.47
2023-01-08T06:57:59.068Z,93515.22
2023-01-08T07:00:27.387Z,93516.00
2023-01-08T07:02:54.715Z,93521.91
2023-01-08T07:05:21.691Z,93512.34
2023-01-08T07:07:48.484Z,93519.50
2023-01-08T07:10:15.245Z,93530.16
2023-01-08T07:12:41.927Z,93521.25
2023-01-08T07:15:09.262Z,93524.78
2023-01-08T07:17:35.854Z,93521.09
2023-01-08T07:20:02.608Z,93524.09
2023-01-08T07:22:29.195Z,93533.03
2023-01-08T07:24:55.772Z,93531.75
2023-01-08T07:27:22.615Z,93536.34
2023-01-08T07:29:49.480Z,93534.59
2023-01-08T07:32:16.139Z,93535.56
2023-01-08T07:34:42.899Z,93536.84
2023-01-08T07:37:09.494Z,93533.69
2023-01-08T07:39:36.123Z,93523.50
2023-01-08T07:42:02.785Z,93512.03
2023-01-08T07:44:29.415Z,93516.81
2023-01-08T07:46:56.241Z,93508.56
2023-01-08T07:49:23.004Z,93502.69
2023-01-08T07:51:50.041Z,93498.34
2023-01-08T07:54:16.624Z,93503.44
2023-01-08T07:56:43.293Z,93498.06
2023-01-08T07:59:10.050Z,93490.25
2023-01-08T08:01:36.870Z,93492.00
2023-01-08T08:04:03.827Z,93485.66
2023-01-08T08:06:30.650Z,93468.31
2023-01-08T08:08:58.239Z,93469.59
2023-01-08T08:11:24.843Z,93465.00
2023-01-08T08:13:53.020Z,93448.94
2023-01-08T08:16:20.607Z,93436.06
2023-01-08T08:18:47.583Z,93440.19
2023-01-08T08:21:14.500Z,93432.56
2023-01-08T08:23:41.158Z,93424.13
2023-01-08T08:26:08.044Z,93422.06
2023-01-08T08:28:34.755Z,93407.44
2023-01-08T08:31:01.684Z,93403.16
2023-01-08T08:33:28.664Z,93407.13
2023-01-08T08:35:55.501Z,93398.84
2023-01-08T08:38:24.069Z,93396.59
2023-01-08T08:40:51.219Z,93395.66
2023-01-08T08:43:18.180Z,93395.66
2023-01-08T08:45:45.009Z,93402.34
2023-01-08T08:48:11.932Z,93407.88
2023-01-08T08:50:39.116Z,93413.94
2023-01-08T08:53:06.641Z,93401.81
2023-01-08T08:55:33.722Z,93402.72
2023-01-08T08:58:11.052Z,93411.34
2023-01-08T09:00:42.175Z,93415.66
2023-01-08T09:03:14.846Z,93421.81
2023-01-08T09:05:43.314Z,93416.88
2023-01-08T09:08:10.401Z,93423.25
2023-01-08T09:10:42.547Z,93419.09
2023-01-08T09:13:10.027Z,93427.47
2023-01-08T09:15:37.606Z,93419.78
2023-01-08T09:18:04.701Z,93427.56
2023-01-08T09:20:31.557Z,93425.84
2023-01-08T09:22:59.527Z,93427.22
2023-01-08T09:25:26.641Z,93422.22
2023-01-08T09:28:04.426Z,93424.44
2023-01-08T09:30:31.524Z,93416.94
2023-01-08T09:33:03.201Z,93417.94
2023-01-08T09:35:31.070Z,93418.16
2023-01-08T09:37:57.830Z,93406.78
2023-01-08T09:40:27.171Z,93404.75
2023-01-08T09:42:59.204Z,93405.78
2023-01-08T09:45:31.691Z,93401.75
2023-01-08T09:48:00.857Z,93398.34
2023-01-08T09:50:28.830Z,93392.28
2023-01-08T09:52:55.469Z,93388.41
2023-01-08T09:55:22.375Z,93387.09
2023-01-08T09:57:49.306Z,93393.53
2023-01-08T10:00:19.219Z,93392.13
2023-01-08T10:02:46.065Z,93389.28
2023-01-08T10:05:16.547Z,93387.84
2023-01-08T10:07:43.629Z,93398.53
2023-01-08T10:10:20.785Z,93413.91
2023-01-08T10:12:48.541Z,93411.78
2023-01-08T10:15:17.554Z,93419.50
2023-01-08T10:18:06.189Z,93422.66
2023-01-08T10:20:33.637Z,93429.19
2023-01-08T10:23:12.003Z,93440.47
2023-01-08T10:25:59.693Z,93451.56
2023-01-08T10:28:31.670Z,93444.94
2023-01-08T10:31:08.921Z,93444.91
2023-01-08T10:33:44.218Z,93432.50
2023-01-08T10:36:14.238Z,93445.13
2023-01-08T10:38:55.376Z,93443.72
2023-01-08T10:41:22.457Z,93445.13
2023-01-08T10:44:04.591Z,93441.16
2023-01-08T10:46:37.176Z,93440.22
2023-01-08T10:49:05.589Z,93446.53
2023-01-08T10:51:33.040Z,93443.16
2023-01-08T10:54:13.165Z,93444.41
2023-01-08T10:56:44.115Z,93455.69
2023-01-08T10:59:24.919Z,93463.97
2023-01-08T11:01:56.034Z,93476.22
2023-01-08T11:04:34.575Z,93471.50
2023-01-08T11:07:03.511Z,93469.69
2023-01-08T11:09:34.102Z,93464.88
2023-01-08T11:12:01.169Z,93465.75
2023-01-08T11:14:35.265Z,93464.53
2023-01-08T11:17:09.508Z,93459.22
2023-01-08T11:19:36.665Z,93441.81
2023-01-08T11:22:05.811Z,93439.00
2023-01-08T11:24:35.112Z,93429.09
2023-01-08T11:27:10.835Z,93434.25
2023-01-08T11:29:57.944Z,93423.38
2023-01-08T11:32:43.530Z,93413.53
2023-01-08T11:35:13.278Z,93409.81
2023-01-08T11:37:44.049Z,93392.00
2023-01-08T11:40:15.182Z,93395.41
2023-01-08T11:42:52.131Z,93403.69
2023-01-08T11:45:30.143Z,93404.28
2023-01-08T11:48:27.283Z,93406.06
2023-01-08T11:50:59.898Z,93406.84
2023-01-08T11:53:38.825Z,93393.81
2023-01-08T11:56:18.194Z,93397.91
2023-01-08T11:59:07.199Z,93383.53
2023-01-08T12:01:40.100Z,93393.19
2023-01-08T12:04:09.899Z,93382.41
2023-01-08T12:06:49.554Z,93397.09
2023-01-08T12:09:28.267Z,93385.63
2023-01-08T12:12:05.545Z,93387.63
2023-01-08T12:15:01.277Z,93381.69
2023-01-08T12:17:38.069Z,93398.72
2023-01-08T12:20:19.883Z,93378.66
2023-01-08T12:23:04.942Z,93377.78
2023-01-08T12:25:49.554Z,93372.66
2023-01-08T12:28:21.866Z,93368.28
2023-01-08T12:31:08.745Z,93376.53
2023-01-08T12:33:54.707Z,93373.22
2023-01-08T12:36:26.516Z,93388.50
2023-01-08T12:38:59.113Z,93378.25
2023-01-08T12:41:26.269Z,93377.84
2023-01-08T12:43:59.276Z,93365.44
2023-01-08T12:46:28.529Z,93365.31
2023-01-08T12:48:56.825Z,93361.00
2023-01-08T12:51:28.430Z,93377.59
2023-01-08T12:54:26.138Z,93380.34
2023-01-08T12:56:52.777Z,93385.84
2023-01-08T12:59:53.380Z,93380.91
2023-01-08T13:02:32.296Z,93384.03
2023-01-08T13:04:59.097Z,93374.28
2023-01-08T13:07:33.100Z,93370.19
2023-01-08T13:10:04.029Z,93359.06
2023-01-08T13:12:36.187Z,93366.81
2023-01-08T13:15:03.689Z,93374.28
2023-01-08T13:17:30.941Z,93371.13
2023-01-08T13:20:06.701Z,93368.06
2023-01-08T13:22:34.953Z,93361.69
2023-01-08T13:25:28.171Z,93358.66
2023-01-08T13:27:55.120Z,93358.13
2023-01-08T13:30:46.509Z,93354.06
2023-01-08T13:33:39.888Z,93358.19
2023-01-08T13:36:21.050Z,93346.94
2023-01-08T13:39:11.678Z,93344.34
2023-01-08T13:41:46.458Z,93348.94
2023-01-08T13:44:27.960Z,93342.00
2023-01-08T13:46:58.511Z,93346.13
2023-01-08T13:49:29.249Z,93342.41
2023-01-08T13:51:56.006Z,93343.59
2023-01-08T13:54:35.478Z,93347.56
2023-01-08T13:57:06.108Z,93345.53
2023-01-08T13:59:44.181Z,93358.25
2023-01-08T14:02:32.087Z,93349.47
2023-01-08T14:05:00.678Z,93344.72
2023-01-08T14:07:27.861Z,93341.59
2023-01-08T14:09:54.821Z,93352.63
2023-01-08T14:12:23.593Z,93348.88
2023-01-08T14:14:57.753Z,93339.78
2023-01-08T14:17:30.385Z,93345.94
2023-01-08T14:19:57.806Z,93352.09
2023-01-08T14:22:29.407Z,93357.47
2023-01-08T14:24:58.900Z,93363.78
2023-01-08T14:27:27.998Z,93366.50
2023-01-08T14:29:55.393Z,93357.44
2023-01-08T14:32:24.597Z,93353.28
2023-01-08T14:34:52.495Z,93363.91
2023-01-08T14:37:19.747Z,93355.63
2023-01-08T14:39:55.059Z,93348.53
2023-01-08T14:42:44.565Z,93340.38
2023-01-08T14:45:11.316Z,93328.97
2023-01-08T14:47:42.537Z,93313.56
2023-01-08T14:50:20.682Z,93310.38
2023-01-08T14:52:47.887Z,93301.84
2023-01-08T14:55:18.769Z,93307.34
2023-01-08T14:57:47.269Z,93313.22
2023-01-08T15:00:25.891Z,93303.81
2023-01-08T15:02:53.097Z,93298.06
2023-01-08T15:05:33.312Z,93303.94
2023-01-08T15:08:30.536Z,93316.56
2023-01-08T15:10:58.985Z,93316.56
2023-01-08T15:13:30.824Z,93327.97
2023-01-08T15:16:07.366Z,93323.25
2023-01-08T15:18:43.127Z,93320.16
2023-01-08T15:21:10.027Z,93317.34
2023-01-08T15:23:41.619Z,93310.63
2023-01-08T15:26:15.616Z,93308.06
2023-01-08T15:29:02.357Z,93297.06
2023-01-08T15:31:34.018Z,93281.66
2023-01-08T15:34:01.138Z,93290.06
2023-01-08T15:36:28.134Z,93301.69
2023-01-08T15:38:55.087Z,93299.91
2023-01-08T15:41:42.260Z,93282.97
2023-01-08T15:44:12.987Z,93295.16
2023-01-08T15:46:39.660Z,93291.03
2023-01-08T15:49:06.315Z,93289.09
2023-01-08T15:51:34.543Z,93288.50
2023-01-08T15:54:01.832Z,93288.91
2023-01-08T15:56:28.585Z,93285.34
2023-01-08T15:58:55.173Z,93277.44
2023-01-08T16:01:21.934Z,93283.56
2023-01-08T16:03:48.866Z,93289.66
2023-01-08T16:06:15.650Z,93299.13
2023-01-08T16:08:45.957Z,93292.03
2023-01-08T16:11:13.694Z,93288.88
2023-01-08T16:13:40.689Z,93285.09
2023-01-08T16:16:09.965Z,93295.69
2023-01-08T16:18:38.294Z,93291.97
2023-01-08T16:21:06.198Z,93290.78
2023-01-08T16:23:37.349Z,93290.78
2023-01-08T16:26:07.842Z,93279.47
2023-01-08T16:28:34.443Z,93285.56
2023-01-08T16:31:01.146Z,93276.00
2023-01-08T16:33:27.921Z,93284.47
2023-01-08T16:36:08.095Z,93292.16
2023-01-08T16:38:35.835Z,93285.06
2023-01-08T16:41:02.664Z,93281.91
2023-01-08T16:43:30.604Z,93278.88
2023-01-08T16:46:03.135Z,93280.00
2023-01-08T16:48:30.543Z,93276.19
2023-01-08T16:51:04.738Z,93270.69
2023-01-08T16:53:31.672Z,93273.13
2023-01-08T16:56:02.157Z,93274.66
2023-01-08T16:58:29.603Z,93284.66
2023-01-08T17:00:57.220Z,93279.31
2023-01-08T17:03:24.412Z,93276.59
2023-01-08T17:05:51.217Z,93283.66
2023-01-08T17:08:20.052Z,93283.94
2023-01-08T17:10:47.017Z,93282.63
2023-01-08T17:13:13.629Z,93268.22
2023-01-08T17:15:40.601Z,93261.78
2023-01-08T17:18:07.261Z,93258.00
2023-01-08T17:20:33.828Z,93261.34
2023-01-08T17:23:02.064Z,93256.25
2023-01-08T17:25:29.116Z,93249.31
2023-01-08T17:27:55.917Z,93250.13
2023-01-08T17:30:22.700Z,93251.84
2023-01-08T17:32:49.576Z,93249.75
2023-01-08T17:35:16.306Z,93239.47
2023-01-08T17:37:42.965Z,93239.16
2023-01-08T17:40:10.317Z,93220.53
2023-01-08T17:42:36.992Z,93236.50
2023-01-08T17:45:05.782Z,93241.50
2023-01-08T17:47:33.117Z,93239.13
2023-01-08T17:50:02.293Z,93240.16
2023-01-08T17:52:29.160Z,93246.19
2023-01-08T17:54:55.856Z,93244.06
2023-01-08T17:57:22.979Z,93234.66
2023-01-08T17:59:49.929Z,93245.16
2023-01-08T18:02:17.571Z,93241.69
2023-01-08T18:04:45.630Z,93236.19
2023-01-08T18:07:12.508Z,93216.78
2023-01-08T18:09:39.109Z,93213.63
2023-01-08T18:12:06.128Z,93200.09
2023-01-08T18:14:34.988Z,93202.47
2023-01-08T18:17:02.083Z,93217.66
2023-01-08T18:19:28.882Z,93201.41
2023-01-08T18:21:55.655Z,93194.94
2023-01-08T18:24:22.370Z,93193.31
2023-01-08T18:26:50.002Z,93189.16
2023-01-08T18:29:16.737Z,93185.38
2023-01-08T18:31:45.936Z,93193.41
2023-01-08T18:34:15.163Z,93188.63
2023-01-08T18:36:42.102Z,93188.53
2023-01-08T18:39:08.747Z,93178.84
2023-01-08T18:41:53.881Z,93181.75
2023-01-08T18:44:20.528Z,93190.03
2023-01-08T18:46:48.232Z,93170.91
2023-01-08T18:49:15.582Z,93180.47
2023-01-08T18:51:42.899Z,93175.59
2023-01-08T18:54:11.268Z,93174.13
2023-01-08T18:56:38.495Z,93175.41
2023-01-08T18:59:06.597Z,93163.00
2023-01-08T19:01:35.247Z,93157.34
2023-01-08T19:04:02.166Z,93161.59
2023-01-08T19:06:29.077Z,93162.94
2023-01-08T19:08:58.261Z,93169.69
2023-01-08T19:11:25.449Z,93161.41
2023-01-08T19:13:57.946Z,93148.19
2023-01-08T19:16:24.783Z,93153.91
2023-01-08T19:18:52.549Z,93159.84
2023-01-08T19:21:19.682Z,93162.81
2023-01-08T19:23:49.684Z,93154.38
2023-01-08T19:26:16.884Z,93144.16
2023-01-08T19:28:44.355Z,93136.72
2023-01-08T19:31:13.378Z,93132.94
2023-01-08T19:33:41.135Z,93125.41
2023-01-08T19:36:12.707Z,93126.44
2023-01-08T19:38:40.407Z,93132.88
2023-01-08T19:41:27.943Z,93123.28
2023-01-08T19:43:55.614Z,93108.44
2023-01-08T19:46:22.270Z,93109.81
2023-01-08T19:48:49.719Z,93102.53
2023-01-08T19:51:16.396Z,93108.25
2023-01-08T19:53:43.085Z,93104.22
2023-01-08T19:56:12.760Z,93090.53
2023-01-08T19:58:40.102Z,93087.56
2023-01-08T20:01:26.960Z,93089.78
2023-01-08T20:03:55.573Z,93075.59
2023-01-08T20:06:24.659Z,93067.94
2023-01-08T20:08:55.926Z,93072.41
2023-01-08T20:11:23.445Z,93061.72
2023-01-08T20:13:51.853Z,93057.44
2023-01-08T20:16:20.229Z,93067.88
2023-01-08T20:18:47.236Z,93058.41
2023-01-08T20:21:21.792Z,93058.88
2023-01-08T20:23:48.851Z,93048.06
2023-01-08T20:26:17.857Z,93040.03
2023-01-08T20:28:45.725Z,93041.25
2023-01-08T20:31:19.667Z,93032.06
2023-01-08T20:33:47.122Z,93032.69
2023-01-08T20:36:20.020Z,93014.88
2023-01-08T20:38:53.341Z,93003.78
2023-01-08T20:41:20.334Z,93003.47
2023-01-08T20:43:47.739Z,92985.31
2023-01-08T20:46:15.613Z,92977.47
2023-01-08T20:48:47.259Z,92989.69
2023-01-08T20:51:16.120Z,92976.22
2023-01-08T20:53:43.069Z,92961.25
2023-01-08T20:56:13.015Z,92969.16
2023-01-08T20:58:42.412Z,92950.72
2023-01-08T21:01:16.089Z,92940.16
2023-01-08T21:03:45.741Z,92953.84
2023-01-08T21:06:16.938Z,92936.66
2023-01-08T21:08:45.947Z,92943.38
2023-01-08T21:11:13.848Z,92940.88
2023-01-08T21:13:40.960Z,92931.41
2023-01-08T21:16:17.611Z,92933.66
2023-01-08T21:18:47.317Z,92926.28
2023-01-08T21:21:16.742Z,92927.28
2023-01-08T21:23:43.820Z,92923.19
2023-01-08T21:26:11.070Z,92908.22
2023-01-08T21:28:38.579Z,92903.13
2023-01-08T21:31:12.132Z,92894.81
2023-01-08T21:33:39.328Z,92883.00
2023-01-08T21:36:06.846Z,92895.16
2023-01-08T21:38:33.852Z,92887.91
2023-01-08T21:41:06.276Z,92887.06
2023-01-08T21:43:51.840Z,92915.72
2023-01-08T21:46:18.623Z,92900.63
2023-01-08T21:48:50.063Z,92889.22
2023-01-08T21:51:35.292Z,92906.47
2023-01-08T21:54:02.143Z,92895.47
2023-01-08T21:56:29.704Z,92892.41
2023-01-08T21:58:56.317Z,92877.28
2023-01-08T22:01:23.065Z,92895.16
2023-01-08T22:03:49.738Z,92891.22
2023-01-08T22:06:16.363Z,92887.13
2023-01-08T22:08:43.022Z,92891.03
2023-01-08T22:11:09.995Z,92878.25
2023-01-08T22:13:38.190Z,92870.41
2023-01-08T22:16:08.615Z,92871.75
2023-01-08T22:18:36.259Z,92871.81
2023-01-08T22:21:07.531Z,92862.28
2023-01-08T22:23:34.650Z,92869.25
2023-01-08T22:26:05.460Z,92870.22
2023-01-08T22:28:33.110Z,92865.50
2023-01-08T22:31:00.450Z,92857.19
2023-01-08T22:33:27.109Z,92875.06
2023-01-08T22:35:55.737Z,92878.06
2023-01-08T22:38:23.692Z,92863.72
2023-01-08T22:40:50.262Z,92855.47
2023-01-08T22:43:16.894Z,92854.09
2023-01-08T22:45:43.498Z,92844.78
2023-01-08T22:48:10.351Z,92833.50
2023-01-08T22:50:36.941Z,92843.06
2023-01-08T22:53:03.541Z,92836.06
2023-01-08T22:55:30.169Z,92839.16
2023-01-08T22:57:56.762Z,92830.66
2023-01-08T23:00:23.427Z,92823.47
2023-01-08T23:02:50.172Z,92807.69
2023-01-08T23:05:16.925Z,92795.38
2023-01-08T23:07:43.511Z,92802.06
2023-01-08T23:10:11.664Z,92800.84
2023-01-08T23:12:38.203Z,92779.22
2023-01-08T23:15:06.146Z,92776.34
2023-01-08T23:17:38.933Z,92773.19
2023-01-08T23:20:11.635Z,92784.34
2023-01-08T23:22:38.851Z,92778.28
2023-01-08T23:25:06.022Z,92775.09
2023-01-08T23:27:34.039Z,92771.34
2023-01-08T23:30:01.185Z,92764.91
2023-01-08T23:32:27.934Z,92748.63
2023-01-08T23:34:54.544Z,92744.31
2023-01-08T23:37:21.424Z,92744.56
2023-01-08T23:39:48.041Z,92739.00
2023-01-08T23:42:14.937Z,92740.22
2023-01-08T23:44:41.962Z,92728.81
2023-01-08T23:47:08.722Z,92736.66
2023-01-08T23:49:35.605Z,92733.91
2023-01-08T23:52:02.253Z,92744.94
2023-01-08T23:54:28.886Z,92732.19
2023-01-08T23:56:55.514Z,92715.28
2023-01-08T23:59:22.130Z,92727.66
